Time;durP1;ratioP1;P1;durP2;ratioP2;P2;SDS_P1;SDS_P2;PMS_P1;PMS_P2;Temp;Humidity;BMP_temperature;BMP_pressure;BME280_temperature;BME280_humidity;BME280_pressure;Samples;Min_cycle;Max_cycle;Signal;HPM_P1;HPM_P2
2021/08/18 00:02:04;;;;;;;19.05;7.57;;;;;;;16.19;93.19;96493.19;4975835;28;20211;-68
2021/08/18 00:04:31;;;;;;;19.35;7.60;;;;;;;16.20;92.96;96478.84;4975751;28;20230;-67
2021/08/18 00:06:57;;;;;;;16.08;7.72;;;;;;;16.25;92.75;96475.59;4975026;28;20211;-67
2021/08/18 00:09:24;;;;;;;17.35;7.45;;;;;;;16.11;93.12;96469.44;4975709;28;20211;-68
2021/08/18 00:11:52;;;;;;;19.38;7.78;;;;;;;16.38;92.66;96467.63;4975077;28;20207;-67
2021/08/18 00:14:18;;;;;;;15.48;6.65;;;;;;;16.21;93.19;96469.84;4975533;28;20242;-68
2021/08/18 00:16:46;;;;;;;17.35;7.50;;;;;;;16.15;93.52;96465.38;4974981;28;20218;-68
2021/08/18 00:19:13;;;;;;;17.17;7.40;;;;;;;16.25;93.36;96455.13;4975603;28;20694;-67
2021/08/18 00:21:39;;;;;;;18.58;7.13;;;;;;;16.11;93.88;96458.81;4975683;28;20207;-68
2021/08/18 00:24:06;;;;;;;18.00;7.18;;;;;;;16.24;93.87;96452.69;4975797;28;20242;-67
2021/08/18 00:26:32;;;;;;;18.10;7.90;;;;;;;16.19;94.23;96455.97;4974986;28;20203;-67
2021/08/18 00:29:03;;;;;;;18.27;7.07;;;;;;;16.34;93.70;96453.91;4975348;28;20211;-67
2021/08/18 00:31:29;;;;;;;16.27;7.55;;;;;;;16.17;92.37;96452.69;4975377;28;20207;-67
2021/08/18 00:33:56;;;;;;;17.00;7.72;;;;;;;16.27;92.97;96458.44;4975647;28;20235;-68
2021/08/18 00:36:22;;;;;;;17.40;6.40;;;;;;;16.27;93.04;96457.63;4974237;28;20219;-67
2021/08/18 00:38:49;;;;;;;15.05;6.72;;;;;;;16.28;92.73;96448.59;4975686;28;20215;-67
2021/08/18 00:41:15;;;;;;;15.50;6.80;;;;;;;16.21;94.19;96458.41;4975231;28;20207;-67
2021/08/18 00:43:42;;;;;;;15.85;7.18;;;;;;;16.16;93.76;96461.69;4975986;28;20226;-67
2021/08/18 00:46:10;;;;;;;17.30;7.22;;;;;;;16.22;93.52;96452.88;4973766;28;20207;-68
2021/08/18 00:48:37;;;;;;;18.08;7.13;;;;;;;16.20;93.72;96457.56;4973169;28;20221;-68
2021/08/18 00:51:04;;;;;;;20.25;7.85;;;;;;;16.24;93.17;96461.50;4975086;28;20207;-67
2021/08/18 00:53:30;;;;;;;16.98;7.10;;;;;;;16.05;93.62;96456.16;4975485;28;20234;-67
2021/08/18 00:55:58;;;;;;;19.15;7.10;;;;;;;16.15;93.31;96459.22;4974465;28;20219;-68
2021/08/18 00:58:24;;;;;;;16.55;6.88;;;;;;;16.19;92.45;96457.78;4975355;28;20219;-68
2021/08/18 01:00:51;;;;;;;19.15;7.43;;;;;;;16.14;92.82;96447.78;4975167;28;20215;-67
2021/08/18 01:03:18;;;;;;;17.23;6.93;;;;;;;16.26;92.05;96445.34;4975143;28;20739;-67
2021/08/18 01:05:45;;;;;;;15.55;6.68;;;;;;;15.87;93.08;96446.16;4974004;28;20214;-67
2021/08/18 01:08:12;;;;;;;18.55;6.78;;;;;;;15.88;93.16;96449.63;4975340;28;20211;-68
2021/08/18 01:10:38;;;;;;;20.45;7.22;;;;;;;15.97;93.63;96445.75;4975563;28;20786;-68
2021/08/18 01:13:06;;;;;;;18.35;7.10;;;;;;;15.76;93.08;96450.44;4974848;28;20211;-67
2021/08/18 01:15:33;;;;;;;16.77;6.70;;;;;;;16.06;93.79;96455.97;4974606;28;20212;-68
2021/08/18 01:18:03;;;;;;;18.80;7.20;;;;;;;16.14;94.24;96449.59;4974995;28;20207;-68
2021/08/18 01:20:33;;;;;;;21.30;7.32;;;;;;;16.19;93.97;96455.13;4975510;28;20210;-68
2021/08/18 01:23:01;;;;;;;18.33;7.18;;;;;;;16.04;93.63;96444.72;4975024;28;20211;-68
2021/08/18 01:25:28;;;;;;;18.83;7.63;;;;;;;16.10;93.22;96445.72;4974250;28;20214;-68
2021/08/18 01:27:56;;;;;;;17.98;7.47;;;;;;;16.29;93.52;96437.75;4974532;28;20231;-67
2021/08/18 01:30:26;;;;;;;21.98;7.40;;;;;;;16.33;93.14;96439.00;4974680;28;20211;-67
2021/08/18 01:32:58;;;;;;;19.35;7.22;;;;;;;16.31;93.18;96438.38;4974476;28;20215;-67
2021/08/18 01:35:27;;;;;;;18.35;7.30;;;;;;;16.20;95.27;96440.81;4974176;28;20215;-67
2021/08/18 01:37:54;;;;;;;20.48;7.78;;;;;;;16.23;94.53;96440.41;4974740;28;20207;-68
2021/08/18 01:40:22;;;;;;;19.63;7.78;;;;;;;16.29;94.38;96435.09;4974398;28;20699;-68
2021/08/18 01:42:50;;;;;;;22.38;8.05;;;;;;;16.18;93.94;96438.38;4974556;28;20214;-68
2021/08/18 01:45:21;;;;;;;20.85;7.75;;;;;;;16.43;93.65;96428.72;4974206;28;20227;-68
2021/08/18 01:47:49;;;;;;;20.08;8.60;;;;;;;16.38;94.72;96428.56;4970941;28;20211;-68
2021/08/18 01:50:16;;;;;;;21.63;7.18;;;;;;;15.89;93.73;96428.16;4977796;28;20679;-68
2021/08/18 01:52:42;;;;;;;20.85;8.13;;;;;;;16.08;94.24;96429.19;4977695;28;20207;-68
2021/08/18 01:55:10;;;;;;;22.52;8.23;;;;;;;16.21;94.76;96422.00;4977411;28;20238;-67
2021/08/18 01:57:37;;;;;;;21.45;8.15;;;;;;;16.16;95.99;96432.44;4977620;28;20211;-67
2021/08/18 02:00:05;;;;;;;21.83;7.90;;;;;;;16.23;94.76;96430.59;4978006;28;20207;-68
2021/08/18 02:02:32;;;;;;;22.35;8.45;;;;;;;16.07;95.78;96424.88;4977431;28;20218;-67
2021/08/18 02:05:00;;;;;;;24.67;9.10;;;;;;;16.23;96.02;96435.06;4977414;28;21101;-67
2021/08/18 02:07:27;;;;;;;22.63;8.27;;;;;;;16.18;94.48;96437.56;4977123;28;20200;-67
2021/08/18 02:09:53;;;;;;;21.27;8.18;;;;;;;15.78;94.13;96437.78;4977504;28;20710;-67
2021/08/18 02:12:20;;;;;;;23.60;9.15;;;;;;;15.96;94.45;96433.47;4977942;28;20207;-67
2021/08/18 02:14:47;;;;;;;21.75;8.55;;;;;;;15.90;94.09;96435.09;4977310;28;20606;-67
2021/08/18 02:17:13;;;;;;;23.67;8.88;;;;;;;15.97;95.20;96430.63;4977567;28;20580;-67
2021/08/18 02:19:40;;;;;;;24.85;9.15;;;;;;;16.09;94.89;96436.16;4977085;28;20203;-68
2021/08/18 02:22:08;;;;;;;26.33;9.48;;;;;;;16.13;95.63;96426.72;4977939;28;20215;-67
2021/08/18 02:24:34;;;;;;;20.83;7.95;;;;;;;16.09;95.75;96430.81;4976973;28;20215;-67
2021/08/18 02:27:01;;;;;;;23.30;9.35;;;;;;;15.97;94.98;96430.63;4976460;28;20628;-68
2021/08/18 02:29:27;;;;;;;30.70;9.27;;;;;;;16.27;94.75;96433.69;4978037;28;20206;-68
2021/08/18 02:31:54;;;;;;;24.00;8.75;;;;;;;16.27;94.25;96429.19;4977448;28;20208;-67
2021/08/18 02:34:20;;;;;;;28.15;10.38;;;;;;;16.38;95.25;96420.59;4972680;28;20765;-68
2021/08/18 02:36:47;;;;;;;26.58;9.68;;;;;;;16.35;95.92;96428.97;4976430;28;20211;-67
2021/08/18 02:39:14;;;;;;;30.38;9.00;;;;;;;16.62;95.20;96425.22;4977626;28;20211;-68
2021/08/18 02:41:41;;;;;;;23.13;8.73;;;;;;;16.45;95.19;96424.03;4977458;28;20207;-68
2021/08/18 02:44:07;;;;;;;23.70;8.70;;;;;;;16.32;94.38;96424.06;4976500;28;20230;-68
2021/08/18 02:46:34;;;;;;;25.75;8.85;;;;;;;16.12;94.51;96428.56;4973760;28;20851;-67
2021/08/18 02:49:00;;;;;;;23.85;8.93;;;;;;;16.31;94.23;96426.94;4976787;28;20214;-68
2021/08/18 02:51:27;;;;;;;28.40;9.40;;;;;;;16.12;94.82;96428.56;4977194;28;20207;-67
2021/08/18 02:53:53;;;;;;;22.95;9.60;;;;;;;16.26;94.59;96424.09;4976977;28;20242;-68
2021/08/18 02:56:21;;;;;;;21.70;8.52;;;;;;;16.26;95.64;96426.75;4976341;28;20230;-68
2021/08/18 02:58:47;;;;;;;30.25;10.30;;;;;;;16.33;95.35;96428.38;4976812;28;20211;-67
2021/08/18 03:01:14;;;;;;;25.83;9.75;;;;;;;16.37;95.84;96424.25;4976719;28;20207;-68
2021/08/18 03:03:40;;;;;;;24.52;9.13;;;;;;;16.53;95.66;96421.13;4976864;28;21044;-68
2021/08/18 03:06:07;;;;;;;23.13;8.60;;;;;;;16.55;96.12;96429.75;4975835;28;20687;-68
2021/08/18 03:08:34;;;;;;;20.92;8.85;;;;;;;16.61;95.33;96428.88;4977024;28;20588;-67
2021/08/18 03:11:00;;;;;;;27.95;9.02;;;;;;;16.63;95.20;96432.16;4976602;28;20710;-68
2021/08/18 03:13:29;;;;;;;25.73;9.32;;;;;;;16.72;95.39;96430.91;4976979;28;20227;-67
2021/08/18 03:15:56;;;;;;;25.15;9.27;;;;;;;16.71;95.00;96418.63;4975625;28;20665;-68
2021/08/18 03:18:22;;;;;;;22.42;8.75;;;;;;;16.55;95.79;96419.91;4976834;28;20206;-67
2021/08/18 03:20:49;;;;;;;25.35;9.50;;;;;;;16.53;95.02;96421.13;4976735;28;20969;-68
2021/08/18 03:23:15;;;;;;;26.83;9.23;;;;;;;16.52;95.78;96425.66;4976321;28;20223;-67
2021/08/18 03:25:42;;;;;;;29.13;9.10;;;;;;;16.61;95.33;96418.25;4975624;28;20207;-68
2021/08/18 03:28:08;;;;;;;25.00;9.13;;;;;;;16.35;94.96;96431.63;4976916;28;20200;-68
2021/08/18 03:30:36;;;;;;;24.05;9.65;;;;;;;16.56;94.54;96426.88;4976183;28;20608;-67
2021/08/18 03:33:03;;;;;;;27.80;9.63;;;;;;;16.42;95.12;96427.13;4976054;28;20609;-68
2021/08/18 03:35:29;;;;;;;22.52;9.32;;;;;;;16.57;95.39;96427.69;4976106;28;20272;-67
2021/08/18 03:37:56;;;;;;;28.83;9.80;;;;;;;16.63;94.79;96421.53;4976173;28;20207;-68
2021/08/18 03:40:22;;;;;;;23.30;9.57;;;;;;;16.71;94.74;96422.13;4976657;28;20214;-68
2021/08/18 03:42:49;;;;;;;26.27;9.98;;;;;;;16.42;94.02;96432.44;4977281;28;20577;-68
2021/08/18 03:45:15;;;;;;;25.70;9.85;;;;;;;16.30;94.51;96428.75;4975209;28;20759;-67
2021/08/18 03:47:43;;;;;;;26.98;9.65;;;;;;;16.41;94.57;96428.13;4972983;28;20706;-67
2021/08/18 03:50:10;;;;;;;29.70;10.18;;;;;;;16.41;94.49;96428.13;4977084;28;20207;-68
2021/08/18 03:52:39;;;;;;;26.50;9.60;;;;;;;16.55;94.49;96435.06;4976192;28;20211;-68
2021/08/18 03:55:06;;;;;;;27.05;9.73;;;;;;;16.53;94.40;96435.28;4975633;28;20235;-67
2021/08/18 03:57:33;;;;;;;26.10;9.68;;;;;;;16.48;95.24;96438.75;4975244;28;20208;-68
2021/08/18 03:59:59;;;;;;;26.23;9.90;;;;;;;16.52;96.01;96436.31;4976003;28;20583;-68
2021/08/18 04:02:26;;;;;;;24.73;9.98;;;;;;;16.53;95.37;96431.78;4976147;28;20629;-67
2021/08/18 04:04:54;;;;;;;31.65;10.43;;;;;;;16.74;95.64;96440.31;4975852;28;20235;-67
2021/08/18 04:07:20;;;;;;;30.17;10.60;;;;;;;16.65;94.84;96443.44;4974992;28;20223;-68
2021/08/18 04:09:47;;;;;;;32.33;9.95;;;;;;;16.44;94.79;96449.00;4975985;28;20215;-67
2021/08/18 04:12:13;;;;;;;30.02;10.10;;;;;;;16.37;94.94;96442.88;4975131;28;20234;-68
2021/08/18 04:14:40;;;;;;;26.77;9.90;;;;;;;16.26;94.26;96442.69;4975888;28;20306;-68
2021/08/18 04:17:06;;;;;;;29.52;10.20;;;;;;;16.09;94.65;96446.78;4974514;28;20743;-67
2021/08/18 04:19:32;;;;;;;29.58;10.20;;;;;;;16.09;95.02;96450.25;4976043;28;20614;-67
2021/08/18 04:22:00;;;;;;;28.60;10.25;;;;;;;16.27;95.86;96453.13;4975528;28;20207;-68
2021/08/18 04:24:27;;;;;;;28.38;10.60;;;;;;;16.13;95.41;96450.66;4976019;28;20691;-67
2021/08/18 04:26:53;;;;;;;26.45;10.10;;;;;;;16.25;94.98;96454.31;4974224;28;20207;-67
2021/08/18 04:29:19;;;;;;;29.88;11.20;;;;;;;16.26;94.34;96454.13;4976344;28;20214;-67
2021/08/18 04:31:46;;;;;;;29.30;10.95;;;;;;;16.35;94.29;96455.56;4975629;28;20207;-68
2021/08/18 04:34:12;;;;;;;26.55;9.52;;;;;;;16.23;93.61;96454.53;4975597;28;20231;-67
2021/08/18 04:36:39;;;;;;;30.35;9.98;;;;;;;16.32;94.16;96450.66;4974481;28;20210;-67
2021/08/18 04:39:07;;;;;;;27.35;10.38;;;;;;;16.54;93.86;96442.22;4975638;28;20208;-68
2021/08/18 04:41:33;;;;;;;30.45;10.70;;;;;;;16.46;93.97;96454.94;4974942;28;20588;-68
2021/08/18 04:43:59;;;;;;;29.50;10.77;;;;;;;16.43;94.41;96452.66;4975073;28;20223;-67
2021/08/18 04:46:27;;;;;;;28.10;10.27;;;;;;;16.39;93.44;96454.13;4973322;28;20216;-70
2021/08/18 04:48:53;;;;;;;31.08;10.85;;;;;;;16.50;93.26;96453.50;4975138;28;20207;-68
2021/08/18 04:51:20;;;;;;;30.58;10.75;;;;;;;16.35;93.63;96455.56;4974995;28;20237;-67
2021/08/18 04:53:46;;;;;;;29.05;10.88;;;;;;;16.23;93.94;96456.34;4975420;28;20242;-67
2021/08/18 04:56:14;;;;;;;30.20;10.65;;;;;;;16.47;93.48;96453.91;4974701;28;20753;-67
2021/08/18 04:58:40;;;;;;;34.70;10.82;;;;;;;16.26;94.21;96456.00;4974558;28;20276;-67
2021/08/18 05:01:07;;;;;;;30.08;11.13;;;;;;;16.31;94.39;96457.00;4974862;28;20218;-68
2021/08/18 05:03:33;;;;;;;26.10;10.48;;;;;;;16.44;93.89;96448.19;4975586;28;20431;-68
2021/08/18 05:06:00;;;;;;;28.88;10.18;;;;;;;16.54;92.85;96452.03;4974416;28;20207;-68
2021/08/18 05:08:26;;;;;;;28.65;9.77;;;;;;;16.48;92.68;96461.69;4974664;28;20211;-68
2021/08/18 05:10:53;;;;;;;26.70;10.55;;;;;;;16.62;92.27;96454.47;4975127;28;20207;-68
2021/08/18 05:13:20;;;;;;;30.02;11.23;;;;;;;16.59;92.98;96457.56;4975230;28;20292;-67
2021/08/18 05:15:47;;;;;;;30.13;10.60;;;;;;;16.51;92.21;96465.78;4973926;28;20223;-67
2021/08/18 05:18:13;;;;;;;27.55;11.00;;;;;;;16.59;92.86;96460.22;4975189;28;20218;-67
2021/08/18 05:20:40;;;;;;;26.95;10.57;;;;;;;16.48;92.65;96462.72;4974973;28;20222;-68
2021/08/18 05:23:06;;;;;;;28.65;10.85;;;;;;;16.66;92.59;96461.00;4975973;28;20256;-68
2021/08/18 05:25:32;;;;;;;28.77;10.77;;;;;;;16.80;92.13;96455.47;4977511;28;20668;-68
2021/08/18 05:28:03;;;;;;;27.95;10.82;;;;;;;16.68;92.52;96462.44;4977954;28;21267;-68
2021/08/18 05:30:31;;;;;;;30.38;11.23;;;;;;;16.98;91.83;96462.75;4977761;28;20213;-68
2021/08/18 05:32:58;;;;;;;25.73;9.70;;;;;;;16.84;91.35;96463.81;4978314;28;20210;-67
2021/08/18 05:35:24;;;;;;;30.50;10.48;;;;;;;16.76;91.94;96464.06;4977308;28;20592;-67
2021/08/18 05:37:51;;;;;;;29.55;10.90;;;;;;;16.73;91.43;96459.16;4978130;28;20207;-67
2021/08/18 05:40:17;;;;;;;27.63;10.32;;;;;;;16.72;91.91;96466.31;4978548;28;20207;-67
2021/08/18 05:42:44;;;;;;;26.77;10.20;;;;;;;16.52;92.79;96473.53;4977988;28;20203;-67
2021/08/18 05:45:11;;;;;;;31.27;10.35;;;;;;;16.62;92.80;96473.09;4978688;28;20218;-67
2021/08/18 05:47:39;;;;;;;29.05;10.80;;;;;;;16.90;92.55;96474.44;4975850;28;20211;-67
2021/08/18 05:50:06;;;;;;;31.55;11.38;;;;;;;16.75;92.79;96470.41;4978081;28;20226;-68
2021/08/18 05:52:33;;;;;;;29.23;10.63;;;;;;;16.75;92.71;96478.38;4977665;28;20679;-68
2021/08/18 05:55:02;;;;;;;30.25;11.40;;;;;;;16.61;93.06;96476.78;4978182;28;20612;-68
2021/08/18 05:57:29;;;;;;;30.13;11.27;;;;;;;16.92;92.44;96474.25;4977380;28;20367;-68
2021/08/18 05:59:56;;;;;;;29.40;10.57;;;;;;;16.96;91.74;96470.16;4977478;28;20203;-70
2021/08/18 06:02:22;;;;;;;33.22;11.27;;;;;;;16.54;93.97;96468.81;4977609;28;20208;-69
2021/08/18 06:04:50;;;;;;;33.78;11.57;;;;;;;16.92;93.27;96474.25;4977912;28;20223;-69
2021/08/18 06:07:16;;;;;;;36.55;11.77;;;;;;;16.92;93.99;96468.94;4976250;28;20207;-69
2021/08/18 06:09:43;;;;;;;30.10;10.57;;;;;;;16.81;92.65;96478.38;4978126;28;20222;-69
2021/08/18 06:12:10;;;;;;;30.35;10.60;;;;;;;16.70;93.23;96479.03;4977396;28;20207;-69
2021/08/18 06:14:36;;;;;;;31.60;11.63;;;;;;;16.78;92.93;96478.00;4977540;28;20618;-69
2021/08/18 06:17:03;;;;;;;31.55;11.43;;;;;;;16.94;93.12;96472.19;4977310;28;20459;-69
2021/08/18 06:19:30;;;;;;;28.52;11.48;;;;;;;17.07;92.05;96464.16;4977198;28;20215;-69
2021/08/18 06:21:59;;;;;;;31.55;12.05;;;;;;;17.02;92.07;96469.28;4977445;28;20211;-69
2021/08/18 06:24:28;;;;;;;32.60;11.50;;;;;;;16.98;92.14;96473.41;4977208;28;20229;-69
2021/08/18 06:26:56;;;;;;;30.55;11.30;;;;;;;17.13;91.64;96475.63;4976611;28;20891;-69
2021/08/18 06:29:23;;;;;;;31.48;11.35;;;;;;;17.09;91.47;96470.91;4977449;28;20388;-69
2021/08/18 06:31:50;;;;;;;31.95;11.82;;;;;;;17.17;92.19;96468.00;4978251;28;20294;-69
2021/08/18 06:34:18;;;;;;;29.13;10.82;;;;;;;17.23;91.62;96468.00;4976007;28;20316;-69
2021/08/18 06:36:44;;;;;;;31.63;12.07;;;;;;;17.06;92.58;96473.19;4976087;28;20230;-69
2021/08/18 06:39:12;;;;;;;31.38;11.52;;;;;;;17.35;90.96;96471.63;4977861;28;20210;-69
2021/08/18 06:41:39;;;;;;;27.75;11.10;;;;;;;17.33;90.03;96468.34;4977577;28;20578;-69
2021/08/18 06:44:05;;;;;;;30.08;12.27;;;;;;;17.17;90.98;96471.50;4976681;28;20223;-67
2021/08/18 06:46:32;;;;;;;31.00;11.77;;;;;;;17.26;90.79;96466.75;4973960;28;20807;-69
2021/08/18 06:48:58;;;;;;;33.13;12.60;;;;;;;17.31;90.69;96464.28;4976920;28;20207;-69
2021/08/18 06:51:25;;;;;;;28.92;12.50;;;;;;;17.25;90.78;96465.13;4976693;28;20211;-70
2021/08/18 06:53:51;;;;;;;31.92;12.23;;;;;;;17.46;89.50;96468.28;4976806;28;20741;-69
2021/08/18 06:56:19;;;;;;;35.47;12.77;;;;;;;17.44;89.98;96462.38;4976212;28;20809;-70
2021/08/18 06:58:45;;;;;;;29.90;12.15;;;;;;;17.51;89.07;96465.81;4976550;28;20211;-69
2021/08/18 07:01:12;;;;;;;35.15;13.00;;;;;;;17.65;88.76;96467.34;4977030;28;20218;-69
2021/08/18 07:03:38;;;;;;;32.42;11.35;;;;;;;17.45;88.52;96472.00;4976983;28;20219;-66
2021/08/18 07:06:05;;;;;;;32.22;11.85;;;;;;;17.82;87.57;96473.81;4975922;28;20203;-66
2021/08/18 07:08:31;;;;;;;34.05;12.35;;;;;;;17.53;88.47;96471.75;4977010;28;20208;-67
2021/08/18 07:10:58;;;;;;;34.35;13.00;;;;;;;17.57;87.87;96466.81;4976327;28;20218;-67
2021/08/18 07:13:25;;;;;;;31.90;12.30;;;;;;;17.86;86.98;96464.38;4976831;28;20242;-67
2021/08/18 07:15:52;;;;;;;25.75;9.85;;;;;;;17.70;86.96;96464.06;4975909;28;20243;-67
2021/08/18 07:18:18;;;;;;;28.38;12.30;;;;;;;17.82;87.38;96473.81;4976809;28;20203;-69
2021/08/18 07:20:45;;;;;;;36.13;13.10;;;;;;;17.90;86.64;96471.69;4976792;28;20222;-69
2021/08/18 07:23:11;;;;;;;29.70;11.85;;;;;;;17.81;87.36;96469.53;4974292;28;20651;-69
2021/08/18 07:25:38;;;;;;;29.58;13.07;;;;;;;17.95;86.33;96473.72;4974955;28;20203;-68
2021/08/18 07:28:04;;;;;;;30.45;10.90;;;;;;;17.85;85.85;96473.38;4975429;28;20210;-70
2021/08/18 07:30:32;;;;;;;20.73;8.15;;;;;;;17.98;84.84;96474.09;4974836;28;20199;-70
2021/08/18 07:32:59;;;;;;;27.50;11.43;;;;;;;18.02;84.16;96477.16;4975913;28;20203;-70
2021/08/18 07:35:25;;;;;;;30.33;11.48;;;;;;;18.16;84.44;96468.00;4975868;28;20602;-69
2021/08/18 07:37:52;;;;;;;30.92;11.55;;;;;;;17.89;85.03;96469.25;4973572;28;20211;-70
2021/08/18 07:40:18;;;;;;;32.05;12.90;;;;;;;18.11;84.62;96470.50;4976193;28;20215;-69
2021/08/18 07:42:45;;;;;;;30.10;11.70;;;;;;;17.90;83.70;96476.22;4975908;28;20915;-70
2021/08/18 07:45:12;;;;;;;30.42;11.63;;;;;;;18.10;83.97;96476.88;4975610;28;20231;-69
2021/08/18 07:47:40;;;;;;;28.40;11.65;;;;;;;18.55;83.40;96474.66;4972866;28;20215;-69
2021/08/18 07:50:07;;;;;;;21.38;8.80;;;;;;;18.10;81.73;96471.53;4975192;28;20211;-69
2021/08/18 07:52:34;;;;;;;28.17;11.88;;;;;;;18.29;82.75;96465.25;4975143;28;20207;-70
2021/08/18 07:55:00;;;;;;;28.65;12.15;;;;;;;17.95;82.08;96476.41;4974183;28;20257;-68
2021/08/18 07:57:27;;;;;;;29.05;12.23;;;;;;;18.14;81.89;96473.56;4973334;28;20223;-67
2021/08/18 07:59:53;;;;;;;29.65;10.80;;;;;;;18.25;80.88;96478.22;4975128;28;20208;-67
2021/08/18 08:02:22;;;;;;;29.73;11.43;;;;;;;18.45;81.56;96473.53;4974420;28;20214;-67
2021/08/18 08:04:50;;;;;;;26.42;10.98;;;;;;;18.69;80.25;96486.84;4974574;28;20230;-67
2021/08/18 08:07:16;;;;;;;33.03;12.68;;;;;;;18.60;80.50;96490.81;4973091;28;20208;-67
2021/08/18 08:09:43;;;;;;;27.67;11.02;;;;;;;18.66;80.28;96487.28;4975240;28;20211;-68
2021/08/18 08:12:10;;;;;;;22.33;9.77;;;;;;;18.33;80.58;96489.44;4973965;28;21076;-67
2021/08/18 08:14:36;;;;;;;29.27;12.57;;;;;;;18.35;81.37;96487.38;4975409;28;21221;-70
2021/08/18 08:17:04;;;;;;;18.15;7.13;;;;;;;18.24;81.04;96483.78;4973387;28;20235;-69
2021/08/18 08:19:30;;;;;;;23.60;11.38;;;;;;;18.45;80.35;96487.69;4973559;28;20672;-69
2021/08/18 08:21:58;;;;;;;19.95;8.35;;;;;;;18.43;79.53;96476.41;4975408;28;20214;-69
2021/08/18 08:24:24;;;;;;;28.92;11.32;;;;;;;18.33;80.41;96489.44;4975682;28;20231;-70
2021/08/18 08:26:51;;;;;;;28.83;12.00;;;;;;;18.55;80.22;96488.00;4974995;28;20200;-70
2021/08/18 08:29:18;;;;;;;26.85;11.50;;;;;;;18.88;78.76;96483.16;4973768;28;20207;-69
2021/08/18 08:31:44;;;;;;;22.83;8.27;;;;;;;18.19;79.45;96502.28;4973300;28;20746;-68
2021/08/18 08:34:13;;;;;;;23.08;9.65;;;;;;;18.26;79.49;96489.72;4974261;28;20260;-67
2021/08/18 08:36:40;;;;;;;28.38;11.80;;;;;;;18.47;80.05;96487.47;4972373;28;20766;-69
2021/08/18 08:39:09;;;;;;;29.83;11.95;;;;;;;19.08;78.27;96483.75;4973704;28;20215;-70
2021/08/18 08:41:36;;;;;;;24.45;10.82;;;;;;;18.77;78.88;96488.41;4974225;28;20682;-69
2021/08/18 08:44:03;;;;;;;19.23;7.28;;;;;;;18.60;78.42;96490.81;4974453;28;20672;-70
2021/08/18 08:46:30;;;;;;;28.92;11.43;;;;;;;18.86;77.51;96485.22;4973806;28;20214;-70
2021/08/18 08:48:57;;;;;;;27.48;12.10;;;;;;;18.99;77.63;96480.56;4974189;28;20233;-69
2021/08/18 08:51:24;;;;;;;25.13;10.52;;;;;;;19.12;76.90;96484.97;4974124;28;20211;-68
2021/08/18 08:53:51;;;;;;;25.48;11.20;;;;;;;19.03;76.62;96475.59;4973972;28;20235;-67
2021/08/18 08:56:19;;;;;;;23.58;9.35;;;;;;;18.85;77.43;96483.59;4972775;28;20734;-67
2021/08/18 08:58:45;;;;;;;23.58;11.25;;;;;;;19.00;77.55;96486.69;4971358;28;20203;-67
2021/08/18 09:01:12;;;;;;;26.08;11.93;;;;;;;19.10;76.68;96487.03;4974407;28;20219;-67
2021/08/18 09:03:40;;;;;;;28.48;12.35;;;;;;;19.09;76.01;96490.75;4973944;28;20892;-68
2021/08/18 09:06:08;;;;;;;26.67;11.25;;;;;;;19.57;76.55;96479.84;4973180;28;21402;-68
2021/08/18 09:08:46;;;;;;;27.70;10.48;;;;;;;18.95;75.50;96489.22;4974683;28;20199;-67
2021/08/18 09:11:14;;;;;;;27.20;11.18;;;;;;;19.10;78.23;96482.50;4974432;28;20264;-69
2021/08/18 09:13:44;;;;;;;25.58;10.23;;;;;;;19.21;75.51;96478.28;4973448;28;20235;-70
2021/08/18 09:16:11;;;;;;;24.20;10.70;;;;;;;19.36;76.83;96476.84;4973352;28;20238;-68
2021/08/18 09:18:40;;;;;;;25.40;10.75;;;;;;;19.59;75.49;96476.97;4974090;28;20203;-68
2021/08/18 09:21:36;;;;;;;26.85;11.07;;;;;;;19.72;74.39;96480.25;4974588;28;20238;-68
2021/08/18 09:24:27;;;;;;;24.05;10.15;;;;;;;19.44;75.83;96475.72;4973698;28;20231;-68
2021/08/18 09:26:55;;;;;;;22.42;10.52;;;;;;;19.51;74.69;96479.13;4972980;28;20855;-68
2021/08/18 09:29:45;;;;;;;21.25;9.10;;;;;;;19.41;75.34;96474.31;4973105;28;20215;-68
2021/08/18 09:32:23;;;;;;;26.23;11.43;;;;;;;19.74;75.00;96480.84;4969738;28;20663;-70
2021/08/18 09:34:55;;;;;;;24.75;11.55;;;;;;;19.40;75.67;96485.22;4973204;28;20234;-69
2021/08/18 09:37:21;;;;;;;26.00;11.20;;;;;;;19.18;77.08;96489.41;4972745;28;20713;-70
2021/08/18 09:39:48;;;;;;;17.33;7.68;;;;;;;19.29;76.04;96491.34;4973765;28;20268;-68
2021/08/18 09:42:32;;;;;;;18.55;8.88;;;;;;;19.44;74.42;96473.06;4973993;28;20222;-68
2021/08/18 09:45:18;;;;;;;25.88;10.27;;;;;;;19.42;75.23;96488.50;4973055;28;20230;-68
2021/08/18 09:47:57;;;;;;;22.85;10.82;;;;;;;19.61;74.52;96480.19;4973311;28;20219;-67
2021/08/18 09:50:25;;;;;;;21.98;10.15;;;;;;;19.68;75.79;96476.41;4973479;28;21258;-68
2021/08/18 09:52:53;;;;;;;22.55;9.63;;;;;;;20.26;74.61;96482.75;4973746;28;20204;-69
2021/08/18 09:55:24;;;;;;;21.40;8.68;;;;;;;20.31;71.89;96480.19;4972855;28;21231;-67
2021/08/18 09:57:51;;;;;;;18.33;8.30;;;;;;;20.12;72.04;96473.28;4971667;28;20224;-69
2021/08/18 10:00:20;;;;;;;24.33;9.35;;;;;;;20.34;73.28;96477.88;4973184;28;21093;-68
2021/08/18 10:02:47;;;;;;;23.20;9.60;;;;;;;20.21;71.74;96474.59;4973896;28;20200;-68
2021/08/18 10:05:14;;;;;;;16.80;7.38;;;;;;;20.10;70.88;96475.41;4972465;28;20231;-68
2021/08/18 10:07:41;;;;;;;20.17;8.88;;;;;;;20.57;72.27;96477.06;4973314;28;20208;-70
2021/08/18 10:10:08;;;;;;;18.67;8.00;;;;;;;20.62;71.82;96475.34;4974051;28;20218;-68
2021/08/18 10:12:35;;;;;;;20.45;8.02;;;;;;;20.52;69.73;96474.25;4976713;28;20698;-67
2021/08/18 10:15:02;;;;;;;16.80;8.35;;;;;;;20.71;71.23;96467.75;4975828;28;20227;-67
2021/08/18 10:17:30;;;;;;;19.80;8.73;;;;;;;20.79;69.92;96459.41;4976358;28;20226;-67
2021/08/18 10:19:57;;;;;;;16.63;8.15;;;;;;;20.59;69.86;96472.28;4976230;28;20207;-67
2021/08/18 10:22:25;;;;;;;15.82;7.63;;;;;;;20.47;70.27;96466.13;4976471;28;20310;-67
2021/08/18 10:24:52;;;;;;;17.42;8.20;;;;;;;20.54;71.32;96469.50;4976904;28;20257;-67
2021/08/18 10:27:45;;;;;;;14.63;7.30;;;;;;;20.62;69.93;96463.78;4975510;28;20242;-67
2021/08/18 10:30:23;;;;;;;21.95;7.63;;;;;;;20.64;70.04;96472.41;4976032;28;20211;-69
2021/08/18 10:32:51;;;;;;;18.88;8.05;;;;;;;20.79;70.03;96464.75;4976846;28;20802;-69
2021/08/18 10:35:43;;;;;;;17.67;6.93;;;;;;;20.71;68.81;96467.75;4975938;28;20231;-69
2021/08/18 10:38:34;;;;;;;17.05;7.32;;;;;;;20.81;72.01;96468.00;4977658;28;20230;-67
2021/08/18 10:41:01;;;;;;;14.77;6.05;;;;;;;19.95;69.98;96472.34;4968686;28;20272;-69
2021/08/18 10:43:52;;;;;;;15.43;7.38;;;;;;;20.54;69.81;96462.28;4976934;28;20226;-69
2021/08/18 10:46:19;;;;;;;12.35;5.63;;;;;;;20.12;69.77;96454.56;4974072;28;20726;-67
2021/08/18 10:49:05;;;;;;;15.13;6.32;;;;;;;20.69;68.81;96464.50;4975792;28;20211;-67
2021/08/18 10:51:52;;;;;;;14.55;6.85;;;;;;;20.73;69.10;96454.97;4974953;28;20650;-67
2021/08/18 10:54:42;;;;;;;16.60;7.75;;;;;;;20.39;69.48;96463.78;4975197;28;20227;-67
2021/08/18 10:57:39;;;;;;;14.55;6.15;;;;;;;20.27;70.57;96463.78;4972165;28;20227;-67
2021/08/18 11:00:11;;;;;;;16.52;7.43;;;;;;;20.27;71.67;96460.28;4976730;28;20211;-67
2021/08/18 11:02:54;;;;;;;17.52;8.02;;;;;;;20.54;72.10;96458.78;4972627;28;20207;-68
2021/08/18 11:05:24;;;;;;;18.95;7.90;;;;;;;20.46;70.54;96453.78;4975445;28;20235;-67
2021/08/18 11:08:02;;;;;;;18.42;7.50;;;;;;;20.42;69.64;96460.66;4975963;28;20211;-67
2021/08/18 11:10:29;;;;;;;15.95;7.07;;;;;;;20.23;71.11;96464.47;4976097;28;20218;-67
2021/08/18 11:12:57;;;;;;;15.10;6.90;;;;;;;20.28;71.13;96460.06;4975659;28;20218;-67
2021/08/18 11:15:54;;;;;;;19.23;7.65;;;;;;;20.44;70.53;96467.41;4974657;28;20214;-67
2021/08/18 11:18:23;;;;;;;18.83;7.93;;;;;;;20.12;71.32;96453.75;4975261;28;20686;-67
2021/08/18 11:20:53;;;;;;;18.33;7.13;;;;;;;20.10;71.43;96464.69;4975673;28;20234;-67
2021/08/18 11:23:31;;;;;;;18.73;8.13;;;;;;;20.07;72.79;96467.81;4975250;28;20277;-67
2021/08/18 11:26:03;;;;;;;16.27;7.38;;;;;;;20.40;72.06;96458.22;4974539;28;20634;-67
2021/08/18 11:28:34;;;;;;;17.75;8.35;;;;;;;20.19;71.24;96457.97;4975498;28;21172;-67